KPSN

Palestine Municipal Airport

Palestine, Texas, USA
METAR KPSN 110415Z AUTO 00000KT 10SM CLR 01/00 A3041 RMK AO2 T00080007
Observed Flight Rules
Dec-11 @ 04:15 UTC (17 minutes ago) Visual Flight Rules
Visibility Clouds
10 miles
  • Clear skies
Temperatures Readings
Current 1°C / 34°F
Dewpoint 1°C / 34°F
Humidity 100%
Altimeter 30.41" Hg
Pressure 1030 hPa
Elevation 129
METAR KPSN 110415Z AUTO 00000KT 10SM CLR 01/00 A3041 RMK AO2 T00080007
Observed Flight Rules
Dec-11 @ 04:15 UTC
(17 minutes ago)
VFR
Clouds
  • Clear skies
Temperature Dewpoint
1°C / 34°F 1°C / 34°F
Humidity Altimeter Pressure
100% 30.41" Hg 1030 hPa